createdAt,value
2018-09-27T00:01:31.770Z,2.80
2018-09-27T00:04:02.458Z,2.97
2018-09-27T00:06:33.136Z,2.37
2018-09-27T00:09:04.279Z,2.30
2018-09-27T00:11:34.948Z,2.10
2018-09-27T00:14:05.699Z,2.27
2018-09-27T00:16:36.304Z,2.40
2018-09-27T00:19:06.998Z,2.60
2018-09-27T00:21:37.681Z,2.20
2018-09-27T00:24:08.570Z,2.00
2018-09-27T00:26:39.186Z,2.70
2018-09-27T00:29:09.847Z,3.23
2018-09-27T00:31:40.472Z,3.10
2018-09-27T00:34:11.227Z,2.33
2018-09-27T00:36:41.878Z,2.50
2018-09-27T00:39:13.968Z,2.60
2018-09-27T00:41:44.584Z,2.40
2018-09-27T00:44:15.268Z,2.40
2018-09-27T00:46:45.946Z,2.70
2018-09-27T00:49:16.623Z,2.60
2018-09-27T00:51:47.287Z,2.30
2018-09-27T00:54:17.915Z,2.70
2018-09-27T00:56:48.628Z,2.77
2018-09-27T00:59:19.288Z,2.80
2018-09-27T01:01:49.913Z,2.53
2018-09-27T01:04:20.632Z,2.70
2018-09-27T01:06:51.387Z,2.50
2018-09-27T01:09:22.020Z,2.47
2018-09-27T01:11:52.665Z,2.40
2018-09-27T01:14:23.279Z,2.60
2018-09-27T01:16:54.001Z,2.30
2018-09-27T01:19:24.663Z,2.47
2018-09-27T01:21:55.370Z,2.47
2018-09-27T01:24:25.976Z,2.40
2018-09-27T01:26:56.587Z,3.23
2018-09-27T01:29:27.280Z,2.83
2018-09-27T01:31:57.884Z,2.70
2018-09-27T01:34:28.598Z,2.40
2018-09-27T01:36:59.323Z,2.40
2018-09-27T01:39:30.019Z,2.60
2018-09-27T01:42:00.647Z,2.90
2018-09-27T01:44:31.318Z,2.70
2018-09-27T01:47:01.987Z,2.50
2018-09-27T01:49:32.585Z,2.27
2018-09-27T01:52:03.198Z,2.23
2018-09-27T01:54:33.892Z,2.23
2018-09-27T01:57:04.552Z,2.30
2018-09-27T01:59:35.268Z,2.70
2018-09-27T02:02:05.935Z,2.47
2018-09-27T02:04:36.588Z,2.40
2018-09-27T02:07:07.398Z,2.50
2018-09-27T02:09:38.018Z,3.00
2018-09-27T02:12:08.660Z,2.87
2018-09-27T02:14:39.370Z,2.40
2018-09-27T02:17:10.028Z,2.33
2018-09-27T02:19:40.686Z,2.60
2018-09-27T02:22:11.383Z,2.50
2018-09-27T02:24:42.049Z,2.40
2018-09-27T02:27:12.751Z,2.47
2018-09-27T02:29:43.507Z,2.40
2018-09-27T02:32:14.241Z,2.70
2018-09-27T02:34:44.847Z,3.00
2018-09-27T02:37:15.523Z,2.50
2018-09-27T02:39:46.213Z,2.90
2018-09-27T02:42:16.943Z,3.00
2018-09-27T02:44:47.631Z,3.07
2018-09-27T02:47:18.410Z,3.00
2018-09-27T02:49:49.119Z,2.70
2018-09-27T02:52:19.792Z,2.73
2018-09-27T02:54:50.471Z,2.90
2018-09-27T02:57:21.131Z,2.83
2018-09-27T02:59:51.834Z,2.93
2018-09-27T03:02:22.619Z,2.83
2018-09-27T03:04:53.291Z,2.83
2018-09-27T03:07:24.045Z,2.80
2018-09-27T03:09:54.677Z,2.83
2018-09-27T03:12:25.310Z,3.30
2018-09-27T03:14:55.898Z,3.07
2018-09-27T03:17:26.578Z,3.37
2018-09-27T03:19:57.264Z,3.30
2018-09-27T03:22:27.916Z,2.87
2018-09-27T03:24:58.521Z,3.10
2018-09-27T03:27:29.196Z,3.10
2018-09-27T03:29:59.857Z,2.90
2018-09-27T03:32:30.520Z,3.00
2018-09-27T03:35:01.161Z,3.20
2018-09-27T03:37:31.823Z,3.00
2018-09-27T03:40:02.458Z,3.37
2018-09-27T03:42:33.183Z,3.37
2018-09-27T03:45:03.842Z,3.13
2018-09-27T03:47:34.502Z,3.40
2018-09-27T03:50:05.175Z,3.07
2018-09-27T03:52:35.800Z,3.20
2018-09-27T03:55:06.519Z,3.10
2018-09-27T03:57:37.187Z,2.80
2018-09-27T04:00:08.644Z,2.80
2018-09-27T04:02:39.269Z,2.60
2018-09-27T04:05:10.060Z,3.20
2018-09-27T04:07:40.712Z,2.90
2018-09-27T04:10:11.359Z,3.10
2018-09-27T04:12:42.101Z,2.90
2018-09-27T04:15:12.711Z,3.03
2018-09-27T04:17:43.339Z,2.83
2018-09-27T04:20:14.022Z,2.77
2018-09-27T04:22:44.685Z,2.90
2018-09-27T04:25:15.339Z,2.50
2018-09-27T04:27:46.053Z,2.80
2018-09-27T04:30:16.709Z,3.03
2018-09-27T04:32:47.324Z,3.00
2018-09-27T04:35:18.045Z,2.90
2018-09-27T04:37:48.731Z,2.47
2018-09-27T04:40:19.511Z,2.87
2018-09-27T04:42:50.271Z,3.07
2018-09-27T04:45:20.928Z,2.73
2018-09-27T04:47:51.589Z,2.40
2018-09-27T04:50:22.304Z,2.83
2018-09-27T04:52:52.995Z,2.87
2018-09-27T04:55:23.701Z,2.90
2018-09-27T04:57:59.509Z,2.70
2018-09-27T05:00:35.477Z,2.60
2018-09-27T05:03:11.359Z,2.90
2018-09-27T05:05:47.327Z,3.00
2018-09-27T05:08:23.331Z,2.87
2018-09-27T05:10:59.304Z,3.20
2018-09-27T05:13:35.060Z,2.80
2018-09-27T05:16:11.131Z,2.60
2018-09-27T05:18:47.172Z,3.00
2018-09-27T05:21:22.997Z,3.70
2018-09-27T05:23:58.927Z,3.00
2018-09-27T05:26:34.987Z,2.97
2018-09-27T05:29:10.940Z,3.00
2018-09-27T05:31:46.827Z,2.60
2018-09-27T05:34:22.641Z,2.97
2018-09-27T05:36:58.503Z,2.70
2018-09-27T05:39:34.532Z,2.80
2018-09-27T05:42:10.382Z,3.20
2018-09-27T05:44:46.351Z,3.40
2018-09-27T05:47:22.241Z,3.10
2018-09-27T05:49:58.239Z,3.57
2018-09-27T05:52:34.116Z,3.40
2018-09-27T05:55:10.004Z,3.27
2018-09-27T05:57:46.032Z,3.90
2018-09-27T06:00:21.914Z,3.17
2018-09-27T06:02:57.835Z,3.00
2018-09-27T06:05:33.794Z,3.23
2018-09-27T06:08:09.588Z,3.40
2018-09-27T06:10:45.608Z,3.37
2018-09-27T06:13:21.528Z,3.57
2018-09-27T06:15:57.456Z,3.37
2018-09-27T06:18:33.494Z,3.27
2018-09-27T06:21:09.267Z,3.70
2018-09-27T06:23:45.257Z,3.60
2018-09-27T06:26:21.106Z,3.10
2018-09-27T06:28:56.892Z,2.93
2018-09-27T06:31:32.726Z,3.33
2018-09-27T06:34:08.658Z,3.43
2018-09-27T06:36:44.771Z,3.83
2018-09-27T06:39:20.666Z,3.20
2018-09-27T06:41:56.664Z,2.87
2018-09-27T06:44:32.705Z,3.10
2018-09-27T06:47:08.644Z,3.47
2018-09-27T06:49:44.623Z,3.37
2018-09-27T06:52:20.513Z,3.83
2018-09-27T06:54:56.509Z,3.27
2018-09-27T06:57:32.478Z,3.67
2018-09-27T07:00:08.888Z,3.47
2018-09-27T07:02:44.972Z,3.30
2018-09-27T07:05:20.920Z,3.57
2018-09-27T07:07:56.794Z,3.80
2018-09-27T07:10:32.779Z,3.10
2018-09-27T07:13:08.814Z,3.47
2018-09-27T07:15:44.678Z,3.37
2018-09-27T07:18:20.703Z,3.20
2018-09-27T07:20:56.537Z,3.30
2018-09-27T07:23:32.548Z,3.33
2018-09-27T07:26:08.524Z,3.57
2018-09-27T07:28:44.514Z,3.73
2018-09-27T07:31:20.398Z,3.43
2018-09-27T07:33:56.447Z,3.83
2018-09-27T07:36:32.457Z,3.50
2018-09-27T07:39:11.290Z,3.30
2018-09-27T07:41:47.193Z,3.50
2018-09-27T07:44:23.020Z,3.70
2018-09-27T07:46:58.950Z,3.57
2018-09-27T07:49:34.972Z,3.70
2018-09-27T07:52:10.953Z,3.80
2018-09-27T07:54:46.935Z,3.53
2018-09-27T07:57:22.854Z,3.40
2018-09-27T07:59:58.756Z,3.80
2018-09-27T08:02:34.722Z,3.57
2018-09-27T08:05:10.486Z,3.60
2018-09-27T08:07:46.551Z,3.80
2018-09-27T08:10:22.568Z,3.73
2018-09-27T08:12:58.425Z,4.47
2018-09-27T08:15:34.390Z,4.37
2018-09-27T08:18:10.349Z,4.10
2018-09-27T08:20:46.457Z,4.30
2018-09-27T08:23:22.208Z,4.73
2018-09-27T08:25:58.268Z,4.40
2018-09-27T08:28:34.150Z,4.60
2018-09-27T08:31:10.173Z,4.23
2018-09-27T08:33:46.032Z,4.57
2018-09-27T08:36:21.992Z,4.97
2018-09-27T08:38:57.878Z,5.77
2018-09-27T08:41:33.805Z,5.50
2018-09-27T08:44:10.945Z,5.30
2018-09-27T08:46:46.958Z,5.33
2018-09-27T08:49:23.020Z,5.23
2018-09-27T08:51:58.930Z,5.20
2018-09-27T08:54:34.918Z,5.10
2018-09-27T08:57:10.619Z,4.80
2018-09-27T08:59:46.492Z,4.70
2018-09-27T09:02:22.456Z,5.27
2018-09-27T09:04:58.416Z,5.73
2018-09-27T09:07:34.458Z,5.40
2018-09-27T09:10:10.015Z,5.13
2018-09-27T09:12:45.719Z,5.23
2018-09-27T09:15:21.959Z,5.33
2018-09-27T09:17:57.862Z,5.67
2018-09-27T09:20:33.888Z,5.77
2018-09-27T09:23:09.726Z,5.57
2018-09-27T09:25:45.700Z,5.40
2018-09-27T09:28:21.605Z,5.13
2018-09-27T09:30:57.514Z,5.70
2018-09-27T09:33:33.591Z,5.73
2018-09-27T09:36:09.413Z,5.67
2018-09-27T09:38:45.194Z,5.20
2018-09-27T09:41:21.128Z,5.03
2018-09-27T09:43:57.073Z,4.80
2018-09-27T09:46:33.032Z,4.93
2018-09-27T09:49:08.974Z,5.07
2018-09-27T09:51:45.001Z,5.03
2018-09-27T09:54:20.929Z,4.53
2018-09-27T09:56:56.998Z,4.97
2018-09-27T09:59:32.857Z,4.57
2018-09-27T10:02:08.771Z,4.20
2018-09-27T10:04:44.542Z,4.30
2018-09-27T10:07:20.626Z,4.97
2018-09-27T10:09:56.655Z,4.13
2018-09-27T10:12:32.773Z,4.43
2018-09-27T10:15:08.824Z,4.40
2018-09-27T10:17:44.608Z,4.10
2018-09-27T10:20:20.429Z,4.03
2018-09-27T10:22:56.266Z,4.00
2018-09-27T10:25:33.443Z,4.13
2018-09-27T10:28:09.593Z,4.03
2018-09-27T10:30:45.517Z,3.20
2018-09-27T10:33:21.420Z,3.20
2018-09-27T10:35:57.392Z,3.50
2018-09-27T10:38:33.315Z,2.77
2018-09-27T10:41:09.388Z,3.37
2018-09-27T10:43:45.521Z,3.60
2018-09-27T10:46:21.411Z,3.23
2018-09-27T10:48:58.051Z,3.30
2018-09-27T10:51:34.250Z,3.40
2018-09-27T10:54:10.295Z,3.63
2018-09-27T10:56:46.138Z,3.77
2018-09-27T10:59:22.094Z,3.37
2018-09-27T11:01:58.019Z,3.90
2018-09-27T11:04:34.069Z,3.47
2018-09-27T11:07:10.037Z,4.27
2018-09-27T11:09:46.106Z,3.57
2018-09-27T11:12:22.083Z,3.27
2018-09-27T11:14:58.020Z,3.10
2018-09-27T11:17:33.966Z,2.80
2018-09-27T11:20:10.144Z,3.10
2018-09-27T11:22:46.178Z,3.27
2018-09-27T11:25:22.236Z,2.80
2018-09-27T11:27:58.284Z,2.60
2018-09-27T11:30:35.236Z,2.90
2018-09-27T11:33:11.204Z,2.60
2018-09-27T11:35:47.144Z,2.10
2018-09-27T11:38:23.118Z,2.80
2018-09-27T11:40:59.194Z,1.73
2018-09-27T11:43:35.238Z,2.20
2018-09-27T11:46:11.135Z,1.77
2018-09-27T11:48:47.204Z,1.70
2018-09-27T11:51:23.137Z,1.73
2018-09-27T11:53:59.435Z,1.80
2018-09-27T11:56:35.618Z,1.73
2018-09-27T11:59:11.747Z,1.57
2018-09-27T12:01:47.758Z,2.00
2018-09-27T12:04:23.741Z,2.00
2018-09-27T12:06:59.851Z,1.93
2018-09-27T12:09:35.919Z,1.90
2018-09-27T12:12:12.028Z,2.13
2018-09-27T12:14:48.228Z,1.83
2018-09-27T12:17:24.508Z,1.77
2018-09-27T12:20:00.614Z,1.70
2018-09-27T12:22:36.571Z,1.70
2018-09-27T12:25:12.461Z,1.60
2018-09-27T12:27:48.376Z,1.50
2018-09-27T12:30:24.254Z,1.30
2018-09-27T12:33:00.200Z,1.30
2018-09-27T12:35:36.102Z,1.40
2018-09-27T12:38:12.263Z,1.50
2018-09-27T12:40:48.204Z,1.30
2018-09-27T12:43:24.040Z,1.33
2018-09-27T12:46:00.104Z,1.30
2018-09-27T12:48:36.143Z,1.50
2018-09-27T12:51:12.390Z,1.30
2018-09-27T12:53:48.333Z,1.07
2018-09-27T12:56:24.408Z,1.30
2018-09-27T12:59:00.416Z,1.30
2018-09-27T13:01:36.622Z,1.10
2018-09-27T13:04:12.573Z,1.27
2018-09-27T13:06:48.499Z,1.00
2018-09-27T13:09:24.586Z,1.10
2018-09-27T13:12:00.656Z,0.90
2018-09-27T13:14:36.588Z,1.20
2018-09-27T13:17:13.684Z,0.93
2018-09-27T13:19:49.674Z,1.00
2018-09-27T13:22:25.821Z,1.00
2018-09-27T13:25:01.817Z,1.00
2018-09-27T13:27:37.923Z,1.03
2018-09-27T13:30:13.828Z,1.20
2018-09-27T13:32:49.885Z,1.40
2018-09-27T13:35:26.006Z,1.50
2018-09-27T13:38:02.032Z,1.50
2018-09-27T13:40:37.928Z,1.30
2018-09-27T13:43:13.838Z,1.33
2018-09-27T13:45:49.901Z,1.27
2018-09-27T13:48:25.951Z,1.40
2018-09-27T13:51:02.116Z,1.30
2018-09-27T13:53:38.236Z,1.47
2018-09-27T13:56:14.330Z,1.40
2018-09-27T13:58:50.340Z,1.60
2018-09-27T14:01:26.205Z,1.80
2018-09-27T14:04:02.286Z,1.80
2018-09-27T14:06:38.398Z,1.70
2018-09-27T14:09:14.457Z,1.80
2018-09-27T14:11:50.436Z,1.60
2018-09-27T14:14:26.389Z,1.80
2018-09-27T14:17:02.355Z,1.70
2018-09-27T14:19:38.469Z,1.80
2018-09-27T14:22:14.453Z,1.70
2018-09-27T14:24:50.394Z,1.80
2018-09-27T14:27:26.257Z,2.00
2018-09-27T14:30:02.289Z,1.93
2018-09-27T14:32:38.373Z,1.67
2018-09-27T14:35:14.495Z,1.93
2018-09-27T14:37:50.356Z,2.10
2018-09-27T14:40:26.504Z,1.90
2018-09-27T14:43:02.685Z,1.80
2018-09-27T14:45:38.608Z,2.20
2018-09-27T14:48:14.679Z,1.90
2018-09-27T14:50:50.764Z,2.07
2018-09-27T14:53:26.873Z,1.90
2018-09-27T14:56:02.941Z,1.83
2018-09-27T14:58:39.067Z,1.63
2018-09-27T15:01:15.051Z,1.50
2018-09-27T15:03:50.990Z,1.70
2018-09-27T15:06:26.900Z,1.53
2018-09-27T15:09:02.928Z,1.63
2018-09-27T15:11:38.882Z,1.73
2018-09-27T15:14:14.984Z,1.90
2018-09-27T15:16:51.015Z,2.40
2018-09-27T15:19:26.969Z,2.00
2018-09-27T15:22:02.844Z,2.00
2018-09-27T15:24:38.965Z,2.03
2018-09-27T15:27:14.995Z,2.47
2018-09-27T15:29:50.885Z,1.80
2018-09-27T15:32:26.852Z,2.00
2018-09-27T15:35:02.881Z,1.83
2018-09-27T15:37:38.820Z,1.90
2018-09-27T15:40:14.581Z,2.07
2018-09-27T15:42:50.469Z,2.13
2018-09-27T15:45:26.536Z,1.90
2018-09-27T15:48:02.406Z,2.10
2018-09-27T15:50:38.405Z,1.90
2018-09-27T15:53:14.360Z,2.00
2018-09-27T15:55:50.284Z,1.90
2018-09-27T15:58:26.350Z,1.67
2018-09-27T16:01:02.238Z,2.13
2018-09-27T16:03:38.098Z,1.60
2018-09-27T16:06:14.122Z,2.30
2018-09-27T16:08:49.962Z,2.50
2018-09-27T16:11:25.924Z,2.60
2018-09-27T16:14:01.870Z,2.77
2018-09-27T16:16:38.003Z,2.10
2018-09-27T16:19:13.853Z,2.20
2018-09-27T16:21:49.875Z,2.20
2018-09-27T16:24:25.800Z,1.93
2018-09-27T16:27:01.611Z,2.33
2018-09-27T16:29:37.622Z,2.20
2018-09-27T16:32:13.338Z,1.93
2018-09-27T16:34:49.089Z,2.17
2018-09-27T16:37:25.143Z,2.40
2018-09-27T16:40:01.067Z,2.10
2018-09-27T16:42:36.937Z,2.20
2018-09-27T16:45:12.763Z,2.20
2018-09-27T16:47:48.753Z,1.83
2018-09-27T16:50:24.708Z,2.30
2018-09-27T16:53:00.671Z,2.00
2018-09-27T16:55:36.620Z,2.20
2018-09-27T16:58:12.507Z,2.30
2018-09-27T17:00:48.466Z,2.30
2018-09-27T17:03:24.510Z,2.30
2018-09-27T17:06:00.604Z,2.13
2018-09-27T17:08:36.643Z,2.23
2018-09-27T17:11:12.683Z,2.10
2018-09-27T17:13:48.753Z,2.40
2018-09-27T17:16:24.744Z,2.90
2018-09-27T17:19:00.715Z,2.37
2018-09-27T17:21:36.661Z,2.60
2018-09-27T17:24:12.619Z,2.60
2018-09-27T17:26:48.560Z,2.23
2018-09-27T17:29:24.382Z,2.60
2018-09-27T17:32:00.297Z,2.60
2018-09-27T17:34:36.269Z,2.80
2018-09-27T17:37:12.013Z,3.17
2018-09-27T17:39:47.994Z,3.03
2018-09-27T17:42:23.804Z,2.60
2018-09-27T17:44:59.743Z,2.87
2018-09-27T17:47:35.524Z,2.80
2018-09-27T17:50:11.568Z,2.93
2018-09-27T17:52:47.414Z,2.77
2018-09-27T17:55:23.541Z,3.20
2018-09-27T17:57:59.508Z,3.40
2018-09-27T18:00:36.020Z,3.67
2018-09-27T18:03:12.219Z,2.83
2018-09-27T18:05:48.169Z,3.30
2018-09-27T18:08:23.954Z,3.23
2018-09-27T18:10:59.883Z,3.70
2018-09-27T18:13:36.000Z,3.33
2018-09-27T18:16:11.989Z,2.87
2018-09-27T18:18:47.977Z,2.90
2018-09-27T18:21:23.983Z,2.83
2018-09-27T18:23:59.864Z,3.00
2018-09-27T18:26:35.885Z,2.77
2018-09-27T18:29:11.876Z,2.90
2018-09-27T18:31:47.830Z,2.93
2018-09-27T18:34:23.627Z,2.60
2018-09-27T18:36:59.640Z,3.30
2018-09-27T18:39:35.355Z,3.73
2018-09-27T18:42:12.240Z,3.00
2018-09-27T18:44:48.000Z,3.30
2018-09-27T18:47:23.972Z,3.57
2018-09-27T18:49:59.946Z,3.30
2018-09-27T18:52:35.807Z,3.33
2018-09-27T18:55:11.587Z,3.13
2018-09-27T18:57:47.412Z,3.20
2018-09-27T19:00:23.320Z,2.97
2018-09-27T19:02:59.324Z,3.30
2018-09-27T19:05:35.306Z,3.37
2018-09-27T19:08:11.233Z,3.23
2018-09-27T19:10:47.202Z,3.70
2018-09-27T19:13:23.059Z,3.67
2018-09-27T19:15:58.833Z,3.67
2018-09-27T19:18:34.886Z,3.80
2018-09-27T19:21:10.808Z,3.77
2018-09-27T19:23:46.675Z,3.97
2018-09-27T19:26:22.474Z,3.47
2018-09-27T19:28:58.281Z,3.97
2018-09-27T19:31:34.158Z,3.10
2018-09-27T19:34:09.928Z,3.20
2018-09-27T19:36:45.899Z,3.93
2018-09-27T19:39:22.047Z,3.53
2018-09-27T19:41:57.894Z,3.57
2018-09-27T19:44:33.739Z,3.70
2018-09-27T19:47:09.710Z,3.40
2018-09-27T19:49:45.665Z,3.73
2018-09-27T19:52:21.680Z,2.90
2018-09-27T19:54:57.567Z,3.20
2018-09-27T19:57:33.632Z,2.90
2018-09-27T20:00:09.593Z,3.13
2018-09-27T20:02:45.640Z,3.00
2018-09-27T20:05:21.457Z,3.40
2018-09-27T20:07:57.337Z,3.17
2018-09-27T20:10:33.491Z,2.77
2018-09-27T20:13:09.436Z,3.10
2018-09-27T20:15:45.491Z,4.23
2018-09-27T20:18:21.426Z,3.50
2018-09-27T20:20:57.216Z,3.37
2018-09-27T20:23:33.192Z,3.10
2018-09-27T20:26:09.144Z,3.40
2018-09-27T20:28:45.079Z,3.07
2018-09-27T20:31:21.069Z,3.80
2018-09-27T20:33:57.045Z,4.03
2018-09-27T20:36:32.879Z,3.87
2018-09-27T20:39:08.747Z,3.27
2018-09-27T20:41:44.793Z,3.40
2018-09-27T20:44:20.708Z,3.70
2018-09-27T20:46:56.753Z,3.70
2018-09-27T20:49:32.464Z,3.73
2018-09-27T20:52:08.329Z,4.17
2018-09-27T20:55:47.533Z,4.07
2018-09-27T20:58:23.430Z,3.90
2018-09-27T21:00:59.398Z,4.00
2018-09-27T21:03:35.563Z,4.30
2018-09-27T21:06:11.559Z,4.10
2018-09-27T21:08:47.542Z,3.50
2018-09-27T21:11:23.529Z,3.47
2018-09-27T21:13:59.388Z,4.00
2018-09-27T21:16:35.212Z,3.80
2018-09-27T21:19:11.405Z,3.83
2018-09-27T21:21:47.398Z,3.90
2018-09-27T21:24:23.209Z,4.00
2018-09-27T21:26:59.175Z,4.43
2018-09-27T21:29:35.220Z,4.10
2018-09-27T21:32:11.147Z,4.70
2018-09-27T21:34:47.020Z,4.80
2018-09-27T21:37:22.945Z,4.40
2018-09-27T21:39:58.875Z,4.57
2018-09-27T21:42:34.876Z,4.70
2018-09-27T21:45:10.656Z,5.40
2018-09-27T21:47:46.584Z,5.17
2018-09-27T21:50:22.618Z,4.80
2018-09-27T21:53:04.826Z,5.60
2018-09-27T21:55:40.781Z,5.00
2018-09-27T21:58:16.896Z,5.10
2018-09-27T22:00:53.519Z,4.57
2018-09-27T22:03:29.513Z,4.70
2018-09-27T22:06:05.363Z,5.30
2018-09-27T22:08:41.315Z,5.90
2018-09-27T22:11:17.239Z,5.40
2018-09-27T22:13:53.045Z,5.20
2018-09-27T22:16:29.125Z,5.77
2018-09-27T22:19:05.163Z,6.07
2018-09-27T22:21:40.973Z,6.23
2018-09-27T22:24:16.973Z,5.83
2018-09-27T22:26:53.024Z,6.53
2018-09-27T22:29:28.948Z,6.17
2018-09-27T22:32:04.949Z,5.93
2018-09-27T22:34:40.936Z,6.27
2018-09-27T22:37:16.987Z,6.07
2018-09-27T22:39:52.949Z,6.13
2018-09-27T22:42:28.884Z,6.83
2018-09-27T22:45:05.342Z,5.67
2018-09-27T22:47:41.192Z,6.70
2018-09-27T22:50:17.132Z,6.60
2018-09-27T22:52:52.946Z,7.03
2018-09-27T22:55:29.726Z,6.73
2018-09-27T22:58:05.626Z,6.93
2018-09-27T23:00:41.481Z,6.10
2018-09-27T23:03:17.484Z,6.80
2018-09-27T23:05:53.455Z,7.17
2018-09-27T23:08:29.438Z,6.70
2018-09-27T23:11:05.399Z,7.47
2018-09-27T23:13:41.389Z,6.73
2018-09-27T23:16:17.296Z,6.97
2018-09-27T23:18:53.312Z,7.27
2018-09-27T23:21:29.389Z,6.70
2018-09-27T23:24:05.409Z,7.60
2018-09-27T23:26:41.384Z,7.03
2018-09-27T23:29:17.375Z,6.30
2018-09-27T23:31:53.294Z,7.23
2018-09-27T23:34:29.290Z,7.07
2018-09-27T23:37:05.051Z,7.10
2018-09-27T23:39:41.002Z,7.37
2018-09-27T23:42:16.938Z,7.37
2018-09-27T23:44:53.017Z,8.03
2018-09-27T23:47:28.961Z,8.37
2018-09-27T23:50:04.963Z,7.97
2018-09-27T23:52:40.888Z,7.43
2018-09-27T23:55:16.696Z,7.27
2018-09-27T23:57:52.534Z,7.20
